createdAt,value
2019-01-28T00:01:41.758Z,2.90
2019-01-28T00:06:36.422Z,2.90
2019-01-28T00:11:30.983Z,2.90
2019-01-28T00:16:25.569Z,2.80
2019-01-28T00:21:20.155Z,2.70
2019-01-28T00:26:14.726Z,2.70
2019-01-28T00:31:09.381Z,2.70
2019-01-28T00:36:04.010Z,2.70
2019-01-28T00:40:58.592Z,2.70
2019-01-28T00:45:53.150Z,2.80
2019-01-28T00:50:47.827Z,2.80
2019-01-28T00:55:42.387Z,2.80
2019-01-28T01:00:37.114Z,2.80
2019-01-28T01:05:31.819Z,2.90
2019-01-28T01:10:26.418Z,2.90
2019-01-28T01:15:21.052Z,2.90
2019-01-28T01:20:17.862Z,2.90
2019-01-28T01:25:14.247Z,2.90
2019-01-28T01:30:15.705Z,2.90
2019-01-28T01:35:10.489Z,3.00
2019-01-28T01:40:09.099Z,3.00
2019-01-28T01:45:04.105Z,3.00
2019-01-28T01:49:58.704Z,3.10
2019-01-28T01:54:53.278Z,3.00
2019-01-28T01:59:47.861Z,3.10
2019-01-28T02:04:42.430Z,3.10
2019-01-28T02:09:37.118Z,3.10
2019-01-28T02:14:31.689Z,3.10
2019-01-28T02:19:26.268Z,3.10
2019-01-28T02:24:20.872Z,3.10
2019-01-28T02:29:15.454Z,3.10
2019-01-28T02:34:10.053Z,3.00
2019-01-28T02:39:07.540Z,3.00
2019-01-28T02:44:02.131Z,2.90
2019-01-28T02:48:56.710Z,2.80
2019-01-28T02:53:51.303Z,2.80
2019-01-28T02:58:45.873Z,2.80
2019-01-28T03:03:40.473Z,2.80
2019-01-28T03:08:35.037Z,2.80
2019-01-28T03:13:29.620Z,2.80
2019-01-28T03:18:24.187Z,2.80
2019-01-28T03:23:20.246Z,2.80
2019-01-28T03:28:14.826Z,2.80
2019-01-28T03:33:09.433Z,2.70
2019-01-28T03:38:04.068Z,2.70
2019-01-28T03:42:58.723Z,2.60
2019-01-28T03:47:53.287Z,2.60
2019-01-28T03:52:48.386Z,2.50
2019-01-28T03:57:43.258Z,2.50
2019-01-28T04:02:37.994Z,2.50
2019-01-28T04:07:32.572Z,2.40
2019-01-28T04:12:27.155Z,2.50
2019-01-28T04:17:21.740Z,2.50
2019-01-28T04:22:16.363Z,2.60
2019-01-28T04:27:10.950Z,2.60
2019-01-28T04:32:05.787Z,2.60
2019-01-28T04:37:00.371Z,2.60
2019-01-28T04:41:54.955Z,2.60
2019-01-28T04:46:49.561Z,2.70
2019-01-28T04:51:44.168Z,2.70
2019-01-28T04:56:38.820Z,2.60
2019-01-28T05:01:33.391Z,2.60
2019-01-28T05:06:27.972Z,2.60
2019-01-28T05:11:22.629Z,2.50
2019-01-28T05:16:17.204Z,2.50
2019-01-28T05:21:11.784Z,2.50
2019-01-28T05:26:06.448Z,2.50
2019-01-28T05:31:01.045Z,2.50
2019-01-28T05:35:55.701Z,2.50
2019-01-28T05:40:50.269Z,2.50
2019-01-28T05:45:44.841Z,2.50
2019-01-28T05:50:39.422Z,2.40
2019-01-28T05:55:34.085Z,2.40
2019-01-28T06:00:31.645Z,2.50
2019-01-28T06:05:26.299Z,2.50
2019-01-28T06:10:21.032Z,2.60
2019-01-28T06:15:18.758Z,2.60
2019-01-28T06:20:25.425Z,2.60
2019-01-28T06:25:20.269Z,2.70
2019-01-28T06:30:22.067Z,2.60
2019-01-28T06:35:16.845Z,2.60
2019-01-28T06:40:24.730Z,2.60
2019-01-28T06:45:19.551Z,2.60
2019-01-28T06:50:21.163Z,2.60
2019-01-28T06:55:16.070Z,2.60
2019-01-28T07:00:29.705Z,2.60
2019-01-28T07:05:24.434Z,2.50
2019-01-28T07:10:19.263Z,2.50
2019-01-28T07:15:18.651Z,2.50
2019-01-28T07:20:24.753Z,2.50
2019-01-28T07:25:20.036Z,2.50
2019-01-28T07:30:32.914Z,2.70
2019-01-28T07:35:27.699Z,2.70
2019-01-28T07:40:22.527Z,2.70
2019-01-28T07:45:21.941Z,2.80
2019-01-28T07:50:16.650Z,2.90
2019-01-28T07:55:13.343Z,3.00
2019-01-28T08:00:12.585Z,3.10
2019-01-28T08:05:12.554Z,3.10
2019-01-28T08:10:12.728Z,3.10
2019-01-28T08:15:15.739Z,3.10
2019-01-28T08:20:14.762Z,3.10
2019-01-28T08:25:13.839Z,3.00
2019-01-28T08:30:18.570Z,3.00
2019-01-28T08:35:14.293Z,3.10
2019-01-28T08:40:18.568Z,3.10
2019-01-28T08:45:14.423Z,3.10
2019-01-28T08:50:22.076Z,3.20
2019-01-28T08:55:20.377Z,3.40
2019-01-28T09:00:25.329Z,3.30
2019-01-28T09:05:22.382Z,3.30
2019-01-28T09:10:22.065Z,3.50
2019-01-28T09:15:22.927Z,3.60
2019-01-28T09:20:21.511Z,3.70
2019-01-28T09:25:17.608Z,3.70
2019-01-28T09:30:28.878Z,3.80
2019-01-28T09:35:23.774Z,3.90
2019-01-28T09:40:25.217Z,3.80
2019-01-28T09:45:27.142Z,3.90
2019-01-28T09:50:22.296Z,4.00
2019-01-28T09:55:18.488Z,4.20
2019-01-28T10:00:32.565Z,4.30
2019-01-28T10:05:27.386Z,4.10
2019-01-28T10:10:23.186Z,4.30
2019-01-28T10:15:28.495Z,4.40
2019-01-28T10:20:27.099Z,4.70
2019-01-28T10:25:23.998Z,4.80
2019-01-28T10:30:23.339Z,4.70
2019-01-28T10:35:18.718Z,4.70
2019-01-28T10:40:21.203Z,4.80
2019-01-28T10:45:22.215Z,4.80
2019-01-28T10:50:25.424Z,4.90
2019-01-28T10:55:27.612Z,4.90
2019-01-28T11:00:29.915Z,5.00
2019-01-28T11:05:29.016Z,5.10
2019-01-28T11:10:29.340Z,5.30
2019-01-28T11:15:27.905Z,5.30
2019-01-28T11:20:23.298Z,5.10
2019-01-28T11:25:22.094Z,5.10
2019-01-28T11:30:33.866Z,5.30
2019-01-28T11:35:28.889Z,5.10
2019-01-28T11:40:23.779Z,5.30
2019-01-28T11:45:32.220Z,5.10
2019-01-28T11:50:26.924Z,5.00
2019-01-28T11:55:21.562Z,5.20
2019-01-28T12:00:27.985Z,5.00
2019-01-28T12:05:22.724Z,5.10
2019-01-28T12:10:17.614Z,4.90
2019-01-28T12:15:21.115Z,5.20
2019-01-28T12:20:18.324Z,5.00
2019-01-28T12:25:16.008Z,5.10
2019-01-28T12:30:29.018Z,5.10
2019-01-28T12:35:24.072Z,5.00
2019-01-28T12:40:21.879Z,4.90
2019-01-28T12:45:26.576Z,4.80
2019-01-28T12:50:23.472Z,4.90
2019-01-28T12:55:22.510Z,4.70
2019-01-28T13:00:25.752Z,4.60
2019-01-28T13:05:23.986Z,4.70
2019-01-28T13:10:24.656Z,4.50
2019-01-28T13:15:29.568Z,4.60
2019-01-28T13:20:24.654Z,4.60
2019-01-28T13:25:26.498Z,4.60
2019-01-28T13:30:40.121Z,4.50
2019-01-28T13:35:34.692Z,4.40
2019-01-28T13:40:29.401Z,4.40
2019-01-28T13:45:28.491Z,4.50
2019-01-28T13:50:25.155Z,4.50
2019-01-28T13:55:21.836Z,4.50
2019-01-28T14:00:23.804Z,4.40
2019-01-28T14:05:18.570Z,4.40
2019-01-28T14:10:16.986Z,4.30
2019-01-28T14:15:16.171Z,4.60
2019-01-28T14:20:25.868Z,4.70
2019-01-28T14:25:20.691Z,4.60
2019-01-28T14:30:22.800Z,4.60
2019-01-28T14:35:17.607Z,4.60
2019-01-28T14:40:17.368Z,4.50
2019-01-28T14:45:13.358Z,4.40
2019-01-28T14:50:18.042Z,4.40
2019-01-28T14:55:12.828Z,4.40
2019-01-28T15:00:15.917Z,4.20
2019-01-28T15:05:12.666Z,4.20
2019-01-28T15:10:12.629Z,4.20
2019-01-28T15:15:12.610Z,4.10
2019-01-28T15:20:09.520Z,4.10
2019-01-28T15:25:05.547Z,4.00
2019-01-28T15:30:00.191Z,3.90
2019-01-28T15:34:54.857Z,3.80
2019-01-28T15:39:49.471Z,3.70
2019-01-28T15:44:44.144Z,3.70
2019-01-28T15:49:38.901Z,3.60
2019-01-28T15:54:34.097Z,3.50
2019-01-28T15:59:28.931Z,3.40
2019-01-28T16:04:23.912Z,3.40
2019-01-28T16:09:18.491Z,3.50
2019-01-28T16:14:13.082Z,3.50
2019-01-28T16:19:08.024Z,3.40
2019-01-28T16:24:03.219Z,3.40
2019-01-28T16:28:58.023Z,3.30
2019-01-28T16:33:52.657Z,3.20
2019-01-28T16:38:47.239Z,3.20
2019-01-28T16:43:41.909Z,3.10
2019-01-28T16:48:36.597Z,3.00
2019-01-28T16:53:31.238Z,3.00
2019-01-28T16:58:26.034Z,3.00
2019-01-28T17:03:20.766Z,3.00
2019-01-28T17:08:15.431Z,3.00
2019-01-28T17:13:11.079Z,3.00
2019-01-28T17:18:06.667Z,3.00
2019-01-28T17:23:01.260Z,3.00
2019-01-28T17:27:55.861Z,2.90
2019-01-28T17:32:50.536Z,2.90
2019-01-28T17:37:45.103Z,2.80
2019-01-28T17:42:39.711Z,2.70
2019-01-28T17:47:34.536Z,2.70
2019-01-28T17:52:29.135Z,2.70
2019-01-28T17:57:23.764Z,2.60
2019-01-28T18:02:18.380Z,2.60
2019-01-28T18:07:13.031Z,2.60
2019-01-28T18:12:07.634Z,2.60
2019-01-28T18:17:02.212Z,2.60
2019-01-28T18:21:56.793Z,2.70
2019-01-28T18:26:51.404Z,2.70
2019-01-28T18:31:45.983Z,2.70
2019-01-28T18:36:40.605Z,2.70
2019-01-28T18:41:35.214Z,2.70
2019-01-28T18:46:29.832Z,2.80
2019-01-28T18:51:24.475Z,2.70
2019-01-28T18:56:19.228Z,2.70
2019-01-28T19:01:13.946Z,2.60
2019-01-28T19:06:10.309Z,2.60
2019-01-28T19:11:14.686Z,2.50
2019-01-28T19:16:13.821Z,2.50
2019-01-28T19:21:10.043Z,2.50
2019-01-28T19:26:05.205Z,2.50
2019-01-28T19:30:59.804Z,2.60
2019-01-28T19:35:54.386Z,2.70
2019-01-28T19:40:49.033Z,2.70
2019-01-28T19:45:43.625Z,2.70
2019-01-28T19:50:38.212Z,2.70
2019-01-28T19:55:32.796Z,2.60
2019-01-28T20:00:27.767Z,2.60
2019-01-28T20:05:22.496Z,2.50
2019-01-28T20:10:17.229Z,2.50
2019-01-28T20:15:18.990Z,2.50
2019-01-28T20:20:17.977Z,2.50
2019-01-28T20:25:16.463Z,2.50
2019-01-28T20:30:18.141Z,2.50
2019-01-28T20:35:15.282Z,2.50
2019-01-28T20:40:14.107Z,2.60
2019-01-28T20:45:15.765Z,2.60
2019-01-28T20:50:23.441Z,2.70
2019-01-28T20:55:18.164Z,2.70
2019-01-28T21:00:17.109Z,2.70
2019-01-28T21:05:16.710Z,2.70
2019-01-28T21:10:16.009Z,2.80
2019-01-28T21:15:14.482Z,2.80
2019-01-28T21:20:13.719Z,2.70
2019-01-28T21:25:13.575Z,2.80
2019-01-28T21:30:27.658Z,2.90
2019-01-28T21:35:26.664Z,2.90
2019-01-28T21:40:21.255Z,2.90
2019-01-28T21:45:16.727Z,3.00
2019-01-28T21:50:12.884Z,3.00
2019-01-28T21:55:09.382Z,3.10
2019-01-28T22:00:05.574Z,3.00
2019-01-28T22:05:00.268Z,3.10
2019-01-28T22:09:54.803Z,3.00
2019-01-28T22:14:49.396Z,3.00
2019-01-28T22:19:44.049Z,2.90
2019-01-28T22:24:38.671Z,2.90
2019-01-28T22:29:33.246Z,2.90
2019-01-28T22:34:27.909Z,2.90
2019-01-28T22:39:22.486Z,2.90
2019-01-28T22:44:17.075Z,2.90
2019-01-28T22:49:11.669Z,2.80
2019-01-28T22:54:06.557Z,2.80
2019-01-28T22:59:01.191Z,2.80
2019-01-28T23:03:55.838Z,2.80
2019-01-28T23:08:50.414Z,2.80
2019-01-28T23:13:44.992Z,2.90
2019-01-28T23:18:39.594Z,3.00
2019-01-28T23:23:34.182Z,3.00
2019-01-28T23:28:28.762Z,3.00
2019-01-28T23:33:23.412Z,3.10
2019-01-28T23:38:18.008Z,3.10
2019-01-28T23:43:12.671Z,3.10
2019-01-28T23:48:07.279Z,3.20
2019-01-28T23:53:01.860Z,3.20
2019-01-28T23:57:57.148Z,3.30
